createdAt,value
2023-03-29T00:01:35.043Z,17.39
2023-03-29T00:04:06.289Z,17.78
2023-03-29T00:06:34.932Z,18.34
2023-03-29T00:09:05.511Z,18.02
2023-03-29T00:11:33.371Z,17.45
2023-03-29T00:14:01.347Z,17.66
2023-03-29T00:16:29.198Z,17.88
2023-03-29T00:18:57.316Z,17.50
2023-03-29T00:21:26.819Z,17.07
2023-03-29T00:23:54.721Z,16.92
2023-03-29T00:26:22.699Z,16.90
2023-03-29T00:28:50.926Z,16.50
2023-03-29T00:31:19.691Z,17.55
2023-03-29T00:33:47.862Z,17.54
2023-03-29T00:36:16.098Z,17.01
2023-03-29T00:38:45.438Z,17.05
2023-03-29T00:41:14.751Z,17.22
2023-03-29T00:43:56.569Z,17.11
2023-03-29T00:46:26.022Z,16.88
2023-03-29T00:48:59.025Z,17.33
2023-03-29T00:51:30.631Z,17.21
2023-03-29T00:54:02.972Z,17.03
2023-03-29T00:56:37.029Z,17.38
2023-03-29T00:59:10.878Z,16.42
2023-03-29T01:01:42.961Z,16.65
2023-03-29T01:04:18.176Z,16.77
2023-03-29T01:06:51.858Z,16.98
2023-03-29T01:09:24.929Z,16.66
2023-03-29T01:11:56.726Z,16.27
2023-03-29T01:14:31.694Z,16.43
2023-03-29T01:16:59.773Z,16.60
2023-03-29T01:19:33.165Z,16.96
2023-03-29T01:22:14.857Z,16.45
2023-03-29T01:24:58.489Z,16.50
2023-03-29T01:27:44.780Z,16.22
2023-03-29T01:30:15.787Z,16.03
2023-03-29T01:32:50.418Z,15.52
2023-03-29T01:35:25.373Z,15.77
2023-03-29T01:37:58.745Z,16.36
2023-03-29T01:40:28.098Z,15.84
2023-03-29T01:43:05.529Z,14.91
2023-03-29T01:45:37.820Z,15.35
2023-03-29T01:48:11.838Z,15.59
2023-03-29T01:50:45.394Z,15.61
2023-03-29T01:53:19.080Z,15.11
2023-03-29T01:55:51.752Z,15.19
2023-03-29T01:58:24.256Z,15.72
2023-03-29T02:00:55.437Z,15.61
2023-03-29T02:03:27.502Z,15.71
2023-03-29T02:05:58.160Z,15.54
2023-03-29T02:08:30.949Z,15.76
2023-03-29T02:10:59.320Z,16.08
2023-03-29T02:13:28.891Z,15.66
2023-03-29T02:16:00.097Z,15.30
2023-03-29T02:18:28.293Z,15.92
2023-03-29T02:20:58.971Z,15.76
2023-03-29T02:23:34.343Z,14.98
2023-03-29T02:26:03.906Z,15.13
2023-03-29T02:28:34.347Z,15.91
2023-03-29T02:31:06.084Z,15.99
2023-03-29T02:33:43.413Z,16.07
2023-03-29T02:36:17.703Z,15.99
2023-03-29T02:38:46.323Z,15.63
2023-03-29T02:41:16.506Z,15.81
2023-03-29T02:43:48.482Z,15.93
2023-03-29T02:46:19.327Z,15.55
2023-03-29T02:48:49.707Z,16.09
2023-03-29T02:51:20.907Z,16.46
2023-03-29T02:53:54.253Z,17.05
2023-03-29T02:56:22.273Z,17.02
2023-03-29T02:58:51.628Z,17.14
2023-03-29T03:01:20.659Z,16.50
2023-03-29T03:03:50.737Z,15.83
2023-03-29T03:06:21.310Z,16.48
2023-03-29T03:08:49.699Z,16.48
2023-03-29T03:11:17.772Z,16.38
2023-03-29T03:13:47.338Z,15.95
2023-03-29T03:16:17.284Z,16.28
2023-03-29T03:18:46.065Z,15.58
2023-03-29T03:21:14.029Z,15.49
2023-03-29T03:23:42.010Z,15.82
2023-03-29T03:26:10.806Z,15.92
2023-03-29T03:28:40.089Z,15.94
2023-03-29T03:31:13.855Z,16.66
2023-03-29T03:34:12.939Z,16.01
2023-03-29T03:36:56.924Z,15.76
2023-03-29T03:39:24.932Z,15.72
2023-03-29T03:41:52.949Z,15.42
2023-03-29T03:44:21.691Z,15.77
2023-03-29T03:47:06.725Z,16.42
2023-03-29T03:49:38.157Z,15.70
2023-03-29T03:52:06.539Z,16.39
2023-03-29T03:54:34.788Z,15.95
2023-03-29T03:57:26.507Z,15.60
2023-03-29T03:59:55.008Z,15.73
2023-03-29T04:02:40.632Z,15.73
2023-03-29T04:05:14.129Z,15.13
2023-03-29T04:07:43.035Z,15.74
2023-03-29T04:10:27.161Z,16.32
2023-03-29T04:13:04.964Z,15.71
2023-03-29T04:15:38.314Z,15.05
2023-03-29T04:18:09.114Z,15.16
2023-03-29T04:20:49.015Z,15.27
2023-03-29T04:23:20.342Z,15.52
2023-03-29T04:25:49.110Z,14.84
2023-03-29T04:28:36.332Z,15.17
2023-03-29T04:31:12.557Z,14.94
2023-03-29T04:33:51.654Z,15.87
2023-03-29T04:36:21.752Z,15.88
2023-03-29T04:38:52.320Z,15.40
2023-03-29T04:41:21.126Z,16.43
2023-03-29T04:43:59.662Z,16.38
2023-03-29T04:46:32.415Z,16.35
2023-03-29T04:49:07.068Z,15.68
2023-03-29T04:51:40.030Z,15.68
2023-03-29T04:54:08.114Z,15.68
2023-03-29T04:56:54.476Z,16.09
2023-03-29T04:59:38.083Z,15.22
2023-03-29T05:02:16.338Z,15.63
2023-03-29T05:04:48.052Z,15.25
2023-03-29T05:07:19.899Z,15.69
2023-03-29T05:09:48.695Z,16.30
2023-03-29T05:12:16.675Z,15.72
2023-03-29T05:15:02.331Z,15.61
2023-03-29T05:17:31.715Z,16.15
2023-03-29T05:20:11.291Z,15.54
2023-03-29T05:22:41.131Z,15.51
2023-03-29T05:25:13.275Z,15.98
2023-03-29T05:27:43.343Z,15.86
2023-03-29T05:30:13.316Z,15.57
2023-03-29T05:32:50.529Z,15.88
2023-03-29T05:35:26.130Z,15.42
2023-03-29T05:37:56.705Z,15.71
2023-03-29T05:40:26.199Z,16.08
2023-03-29T05:43:27.115Z,15.16
2023-03-29T05:45:55.912Z,16.01
2023-03-29T05:48:25.104Z,15.65
2023-03-29T05:50:54.572Z,16.66
2023-03-29T05:53:26.302Z,15.54
2023-03-29T05:55:55.117Z,15.25
2023-03-29T05:58:26.614Z,15.32
2023-03-29T06:00:55.119Z,15.96
2023-03-29T06:03:42.312Z,15.97
2023-03-29T06:06:11.128Z,14.82
2023-03-29T06:08:40.459Z,16.09
2023-03-29T06:11:37.657Z,16.74
2023-03-29T06:14:30.359Z,17.03
2023-03-29T06:17:22.893Z,16.53
2023-03-29T06:19:53.118Z,15.96
2023-03-29T06:22:24.651Z,15.61
2023-03-29T06:24:54.399Z,15.77
2023-03-29T06:27:29.303Z,16.52
2023-03-29T06:29:58.427Z,16.04
2023-03-29T06:32:26.541Z,16.24
2023-03-29T06:35:05.961Z,16.60
2023-03-29T06:37:40.510Z,16.95
2023-03-29T06:40:21.332Z,16.10
2023-03-29T06:42:50.940Z,17.30
2023-03-29T06:45:47.143Z,17.00
2023-03-29T06:48:32.565Z,16.83
2023-03-29T06:51:01.087Z,17.45
2023-03-29T06:53:31.380Z,17.27
2023-03-29T06:56:05.421Z,17.87
2023-03-29T06:58:42.701Z,18.77
2023-03-29T07:01:28.567Z,17.89
2023-03-29T07:04:08.208Z,17.87
2023-03-29T07:07:00.235Z,17.31
2023-03-29T07:09:30.819Z,17.26
2023-03-29T07:12:26.391Z,16.76
2023-03-29T07:14:59.683Z,17.43
2023-03-29T07:17:47.818Z,18.49
2023-03-29T07:20:16.767Z,18.10
2023-03-29T07:22:51.971Z,17.06
2023-03-29T07:25:23.629Z,16.94
2023-03-29T07:27:53.215Z,17.36
2023-03-29T07:30:23.625Z,17.96
2023-03-29T07:32:53.971Z,17.13
2023-03-29T07:35:30.851Z,18.31
2023-03-29T07:37:59.417Z,18.66
2023-03-29T07:40:28.880Z,18.10
2023-03-29T07:43:18.484Z,18.43
2023-03-29T07:45:47.105Z,17.71
2023-03-29T07:48:15.711Z,17.78
2023-03-29T07:50:52.826Z,18.50
2023-03-29T07:53:26.986Z,17.93
2023-03-29T07:55:57.656Z,18.21
2023-03-29T07:58:57.220Z,18.38
2023-03-29T08:01:25.686Z,18.67
2023-03-29T08:04:12.825Z,18.37
2023-03-29T08:07:00.958Z,18.73
2023-03-29T08:09:46.902Z,17.26
2023-03-29T08:12:15.100Z,18.29
2023-03-29T08:14:44.516Z,19.26
2023-03-29T08:17:32.947Z,19.18
2023-03-29T08:20:01.208Z,19.27
2023-03-29T08:22:29.488Z,19.04
2023-03-29T08:25:11.704Z,19.00
2023-03-29T08:27:44.798Z,19.45
2023-03-29T08:30:17.397Z,19.31
2023-03-29T08:32:48.682Z,18.92
2023-03-29T08:35:18.631Z,18.70
2023-03-29T08:38:04.414Z,19.21
2023-03-29T08:40:32.580Z,19.68
2023-03-29T08:43:25.910Z,19.78
2023-03-29T08:46:40.869Z,19.28
2023-03-29T08:49:21.469Z,20.58
2023-03-29T08:51:53.996Z,19.63
2023-03-29T08:54:27.088Z,20.33
2023-03-29T08:57:27.223Z,19.51
2023-03-29T09:00:02.244Z,19.10
2023-03-29T09:02:36.031Z,20.79
2023-03-29T09:05:19.105Z,20.40
2023-03-29T09:08:10.250Z,19.65
2023-03-29T09:10:44.963Z,21.09
2023-03-29T09:13:26.183Z,20.41
2023-03-29T09:16:06.195Z,20.49
2023-03-29T09:18:57.936Z,19.71
2023-03-29T09:21:34.625Z,20.57
2023-03-29T09:24:39.548Z,19.74
2023-03-29T09:27:21.804Z,20.20
2023-03-29T09:30:24.527Z,20.41
2023-03-29T09:33:01.871Z,19.01
2023-03-29T09:35:52.454Z,19.08
2023-03-29T09:38:22.953Z,18.95
2023-03-29T09:40:54.814Z,18.68
2023-03-29T09:43:32.110Z,18.19
2023-03-29T09:46:05.521Z,18.40
2023-03-29T09:48:41.077Z,18.13
2023-03-29T09:51:13.790Z,19.10
2023-03-29T09:53:42.103Z,19.69
2023-03-29T09:56:19.262Z,19.93
2023-03-29T09:58:51.275Z,19.82
2023-03-29T10:01:20.584Z,20.38
2023-03-29T10:03:53.240Z,20.62
2023-03-29T10:06:26.975Z,21.26
2023-03-29T10:08:59.703Z,20.56
2023-03-29T10:11:38.443Z,20.22
2023-03-29T10:14:13.379Z,19.71
2023-03-29T10:16:45.263Z,20.64
2023-03-29T10:19:22.438Z,20.12
2023-03-29T10:21:53.235Z,19.11
2023-03-29T10:24:22.384Z,19.81
2023-03-29T10:26:55.487Z,19.74
2023-03-29T10:29:25.029Z,20.08
2023-03-29T10:31:53.709Z,19.26
2023-03-29T10:34:27.965Z,19.36
2023-03-29T10:37:01.020Z,19.66
2023-03-29T10:39:33.569Z,19.31
2023-03-29T10:42:04.207Z,20.42
2023-03-29T10:44:35.016Z,20.43
2023-03-29T10:47:19.199Z,19.75
2023-03-29T10:49:53.096Z,20.63
2023-03-29T10:52:23.748Z,21.90
2023-03-29T10:54:53.991Z,20.64
2023-03-29T10:57:30.947Z,21.01
2023-03-29T11:00:04.908Z,21.32
2023-03-29T11:03:09.823Z,22.92
2023-03-29T11:05:45.051Z,22.57
2023-03-29T11:08:34.860Z,22.48
2023-03-29T11:11:12.104Z,22.50
2023-03-29T11:13:46.405Z,21.11
2023-03-29T11:16:28.283Z,21.17
2023-03-29T11:19:28.027Z,22.24
2023-03-29T11:22:06.714Z,22.05
2023-03-29T11:24:51.160Z,21.75
2023-03-29T11:27:30.478Z,22.08
2023-03-29T11:30:07.981Z,22.60
2023-03-29T11:32:43.855Z,23.41
2023-03-29T11:35:25.590Z,23.71
2023-03-29T11:38:01.545Z,24.48
2023-03-29T11:40:43.470Z,23.42
2023-03-29T11:43:18.940Z,22.45
2023-03-29T11:45:52.435Z,23.18
2023-03-29T11:48:25.398Z,21.57
2023-03-29T11:50:58.911Z,22.46
2023-03-29T11:53:32.293Z,23.02
2023-03-29T11:56:12.454Z,23.27
2023-03-29T11:58:44.732Z,23.81
2023-03-29T12:01:16.094Z,23.15
2023-03-29T12:03:47.497Z,21.96
2023-03-29T12:06:22.255Z,23.10
2023-03-29T12:08:56.690Z,21.98
2023-03-29T12:11:31.222Z,21.79
2023-03-29T12:14:04.637Z,23.18
2023-03-29T12:16:37.185Z,23.15
2023-03-29T12:19:16.381Z,23.16
2023-03-29T12:21:46.319Z,23.63
2023-03-29T12:24:18.180Z,23.57
2023-03-29T12:27:04.104Z,23.13
2023-03-29T12:29:45.156Z,23.15
2023-03-29T12:32:32.469Z,23.29
2023-03-29T12:35:28.798Z,22.29
2023-03-29T12:38:35.084Z,23.23
2023-03-29T12:41:24.620Z,23.63
2023-03-29T12:44:34.898Z,23.35
2023-03-29T12:47:25.350Z,22.48
2023-03-29T12:49:56.215Z,21.66
2023-03-29T12:52:28.090Z,22.04
2023-03-29T12:54:58.016Z,21.05
2023-03-29T12:57:29.361Z,22.14
2023-03-29T13:00:12.313Z,22.21
2023-03-29T13:02:40.606Z,22.17
2023-03-29T13:05:34.222Z,20.51
2023-03-29T13:08:20.632Z,22.59
2023-03-29T13:10:55.069Z,21.50
2023-03-29T13:13:27.534Z,20.36
2023-03-29T13:15:58.067Z,21.34
2023-03-29T13:18:43.406Z,21.58
2023-03-29T13:21:21.159Z,21.00
2023-03-29T13:23:58.482Z,20.81
2023-03-29T13:26:45.207Z,20.34
2023-03-29T13:29:38.907Z,22.06
2023-03-29T13:32:27.204Z,22.30
2023-03-29T13:35:02.381Z,21.13
2023-03-29T13:37:41.224Z,20.35
2023-03-29T13:40:42.928Z,21.12
2023-03-29T13:43:19.661Z,21.00
2023-03-29T13:46:04.320Z,21.84
2023-03-29T13:48:49.407Z,22.53
2023-03-29T13:51:33.741Z,22.41
2023-03-29T13:54:08.384Z,21.23
2023-03-29T13:56:41.674Z,22.61
2023-03-29T13:59:15.920Z,22.22
2023-03-29T14:01:51.608Z,21.63
2023-03-29T14:04:25.847Z,21.50
2023-03-29T14:06:58.000Z,20.90
2023-03-29T14:09:31.050Z,20.93
2023-03-29T14:12:00.854Z,20.65
2023-03-29T14:14:33.028Z,21.12
2023-03-29T14:17:02.012Z,21.40
2023-03-29T14:19:33.894Z,21.91
2023-03-29T14:22:03.880Z,21.68
2023-03-29T14:24:38.827Z,22.55
2023-03-29T14:27:10.039Z,22.55
2023-03-29T14:29:38.499Z,22.34
2023-03-29T14:32:11.144Z,21.86
2023-03-29T14:34:41.621Z,20.91
2023-03-29T14:37:12.250Z,21.53
2023-03-29T14:39:42.145Z,21.44
2023-03-29T14:42:16.283Z,21.46
2023-03-29T14:44:44.890Z,21.96
2023-03-29T14:47:20.940Z,22.76
2023-03-29T14:49:50.441Z,21.57
2023-03-29T14:52:20.309Z,21.12
2023-03-29T14:54:53.424Z,21.66
2023-03-29T14:57:25.078Z,21.31
2023-03-29T14:59:55.830Z,21.29
2023-03-29T15:02:26.817Z,21.75
2023-03-29T15:05:04.721Z,22.13
2023-03-29T15:07:34.701Z,21.44
2023-03-29T15:10:05.146Z,20.90
2023-03-29T15:12:34.635Z,21.03
2023-03-29T15:15:04.044Z,21.99
2023-03-29T15:17:47.621Z,22.26
2023-03-29T15:20:26.928Z,22.41
2023-03-29T15:22:58.828Z,21.18
2023-03-29T15:25:29.341Z,21.21
2023-03-29T15:28:00.991Z,21.44
2023-03-29T15:30:35.763Z,21.13
2023-03-29T15:33:14.704Z,22.38
2023-03-29T15:35:47.352Z,23.08
2023-03-29T15:38:15.826Z,22.25
2023-03-29T15:40:44.077Z,21.86
2023-03-29T15:43:12.201Z,21.47
2023-03-29T15:45:40.619Z,22.43
2023-03-29T15:48:16.664Z,22.51
2023-03-29T15:50:46.805Z,22.01
2023-03-29T15:53:17.005Z,21.95
2023-03-29T15:55:48.910Z,21.35
2023-03-29T15:58:19.082Z,21.68
2023-03-29T16:00:51.856Z,21.91
2023-03-29T16:03:19.983Z,21.29
2023-03-29T16:05:50.107Z,21.57
2023-03-29T16:08:18.166Z,21.31
2023-03-29T16:10:47.234Z,20.68
2023-03-29T16:13:16.131Z,21.84
2023-03-29T16:15:44.391Z,21.43
2023-03-29T16:18:12.281Z,21.91
2023-03-29T16:20:41.743Z,21.06
2023-03-29T16:23:12.360Z,21.57
2023-03-29T16:25:41.513Z,20.39
2023-03-29T16:28:10.227Z,20.83
2023-03-29T16:30:39.419Z,21.10
2023-03-29T16:33:08.866Z,21.18
2023-03-29T16:35:40.284Z,21.16
2023-03-29T16:38:09.774Z,20.66
2023-03-29T16:40:39.636Z,20.77
2023-03-29T16:43:07.806Z,21.23
2023-03-29T16:45:36.299Z,21.59
2023-03-29T16:48:05.145Z,21.50
2023-03-29T16:50:33.317Z,22.08
2023-03-29T16:53:01.484Z,21.97
2023-03-29T16:55:29.724Z,22.07
2023-03-29T16:57:59.002Z,21.81
2023-03-29T17:00:26.949Z,21.75
2023-03-29T17:02:56.143Z,20.96
2023-03-29T17:05:25.331Z,21.78
2023-03-29T17:07:53.441Z,21.66
2023-03-29T17:10:21.958Z,21.50
2023-03-29T17:12:50.969Z,21.73
2023-03-29T17:15:20.406Z,22.20
2023-03-29T17:17:48.416Z,22.76
2023-03-29T17:20:16.565Z,22.70
2023-03-29T17:22:44.605Z,23.37
2023-03-29T17:25:12.631Z,23.64
2023-03-29T17:27:40.977Z,22.62
2023-03-29T17:30:09.843Z,22.30
2023-03-29T17:32:41.400Z,21.80
2023-03-29T17:35:10.350Z,22.87
2023-03-29T17:37:38.384Z,21.58
2023-03-29T17:40:11.208Z,20.91
2023-03-29T17:42:39.111Z,20.68
2023-03-29T17:45:08.557Z,22.15
2023-03-29T17:47:37.334Z,21.93
2023-03-29T17:50:07.872Z,21.96
2023-03-29T17:52:36.546Z,22.12
2023-03-29T17:55:04.569Z,22.76
2023-03-29T17:57:32.586Z,22.83
2023-03-29T18:00:00.628Z,23.37
2023-03-29T18:02:28.673Z,23.15
2023-03-29T18:04:57.331Z,22.47
2023-03-29T18:07:26.733Z,22.13
2023-03-29T18:09:54.743Z,22.47
2023-03-29T18:12:23.744Z,22.92
2023-03-29T18:14:52.184Z,22.97
2023-03-29T18:17:20.184Z,23.06
2023-03-29T18:19:48.028Z,22.55
2023-03-29T18:22:15.967Z,22.62
2023-03-29T18:24:46.529Z,22.44
2023-03-29T18:27:15.794Z,22.61
2023-03-29T18:29:44.608Z,22.87
2023-03-29T18:32:12.785Z,22.66
2023-03-29T18:34:40.982Z,21.95
2023-03-29T18:37:14.450Z,22.12
2023-03-29T18:39:43.057Z,21.87
2023-03-29T18:42:13.164Z,21.58
2023-03-29T18:44:42.206Z,22.81
2023-03-29T18:47:10.223Z,23.10
2023-03-29T18:49:38.404Z,22.05
2023-03-29T18:52:06.574Z,22.15
2023-03-29T18:54:34.664Z,20.78
2023-03-29T18:57:02.911Z,22.58
2023-03-29T18:59:32.249Z,23.15
2023-03-29T19:02:01.172Z,23.38
2023-03-29T19:04:29.909Z,23.37
2023-03-29T19:06:59.811Z,23.63
2023-03-29T19:09:28.422Z,22.01
2023-03-29T19:11:56.374Z,20.77
2023-03-29T19:14:25.449Z,20.68
2023-03-29T19:16:54.915Z,20.93
2023-03-29T19:19:26.247Z,20.94
2023-03-29T19:21:55.029Z,20.36
2023-03-29T19:24:24.400Z,21.11
2023-03-29T19:26:52.789Z,21.11
2023-03-29T19:29:20.873Z,21.26
2023-03-29T19:31:48.927Z,20.47
2023-03-29T19:34:19.890Z,20.76
2023-03-29T19:36:48.150Z,19.98
2023-03-29T19:39:16.149Z,19.76
2023-03-29T19:41:44.390Z,20.05
2023-03-29T19:44:13.803Z,21.07
2023-03-29T19:46:42.301Z,20.33
2023-03-29T19:49:13.512Z,21.21
2023-03-29T19:51:44.160Z,20.55
2023-03-29T19:54:12.764Z,20.18
2023-03-29T19:56:42.672Z,20.51
2023-03-29T19:59:14.903Z,20.40
2023-03-29T20:01:50.899Z,19.49
2023-03-29T20:04:19.930Z,20.42
2023-03-29T20:06:49.980Z,20.33
2023-03-29T20:09:18.045Z,20.60
2023-03-29T20:11:46.715Z,20.04
2023-03-29T20:14:15.001Z,19.99
2023-03-29T20:16:44.196Z,19.87
2023-03-29T20:19:14.214Z,18.90
2023-03-29T20:21:42.323Z,19.62
2023-03-29T20:24:12.232Z,19.50
2023-03-29T20:26:40.515Z,19.17
2023-03-29T20:29:10.106Z,19.79
2023-03-29T20:31:38.463Z,19.49
2023-03-29T20:34:06.756Z,20.02
2023-03-29T20:36:34.875Z,20.92
2023-03-29T20:39:02.900Z,21.09
2023-03-29T20:41:33.740Z,21.77
2023-03-29T20:44:03.039Z,22.01
2023-03-29T20:46:34.308Z,21.83
2023-03-29T20:49:03.042Z,21.34
2023-03-29T20:51:32.133Z,21.47
2023-03-29T20:54:04.618Z,21.74
2023-03-29T20:56:37.422Z,21.24
2023-03-29T20:59:05.948Z,20.95
2023-03-29T21:01:35.095Z,21.07
2023-03-29T21:04:03.174Z,20.80
2023-03-29T21:06:31.565Z,21.61
2023-03-29T21:08:59.485Z,21.03
2023-03-29T21:11:27.769Z,21.28
2023-03-29T21:13:57.062Z,20.94
2023-03-29T21:16:25.594Z,21.08
2023-03-29T21:18:54.389Z,20.42
2023-03-29T21:21:23.173Z,19.87
2023-03-29T21:23:51.359Z,20.00
2023-03-29T21:26:19.262Z,20.01
2023-03-29T21:28:48.582Z,19.33
2023-03-29T21:31:18.004Z,19.41
2023-03-29T21:33:46.140Z,19.24
2023-03-29T21:36:14.059Z,20.64
2023-03-29T21:38:42.049Z,21.29
2023-03-29T21:41:12.029Z,20.24
2023-03-29T21:43:40.138Z,20.25
2023-03-29T21:46:08.686Z,20.46
2023-03-29T21:48:38.439Z,21.57
2023-03-29T21:51:07.242Z,22.80
2023-03-29T21:53:35.419Z,22.44
2023-03-29T21:56:03.659Z,22.00
2023-03-29T21:58:31.680Z,21.89
2023-03-29T22:00:59.712Z,21.99
2023-03-29T22:03:28.247Z,22.01
2023-03-29T22:05:59.744Z,22.23
2023-03-29T22:08:28.264Z,21.32
2023-03-29T22:10:57.179Z,21.52
2023-03-29T22:13:27.141Z,22.17
2023-03-29T22:15:59.191Z,22.35
2023-03-29T22:18:29.978Z,22.37
2023-03-29T22:20:59.157Z,22.09
2023-03-29T22:23:27.025Z,22.02
2023-03-29T22:25:55.592Z,22.33
2023-03-29T22:28:23.551Z,22.19
2023-03-29T22:30:51.365Z,21.76
2023-03-29T22:33:20.335Z,21.43
2023-03-29T22:35:48.268Z,21.26
2023-03-29T22:38:17.503Z,20.68
2023-03-29T22:40:45.490Z,20.32
2023-03-29T22:43:13.362Z,20.89
2023-03-29T22:45:41.276Z,21.41
2023-03-29T22:48:09.146Z,20.50
2023-03-29T22:50:37.123Z,20.65
2023-03-29T22:53:05.137Z,20.99
2023-03-29T22:55:34.564Z,21.26
2023-03-29T22:58:02.653Z,22.04
2023-03-29T23:00:31.221Z,20.94
2023-03-29T23:02:59.229Z,21.98
2023-03-29T23:05:27.375Z,22.02
2023-03-29T23:07:55.786Z,22.20
2023-03-29T23:10:28.719Z,21.32
2023-03-29T23:13:08.400Z,19.71
2023-03-29T23:15:37.572Z,21.12
2023-03-29T23:18:06.361Z,21.30
2023-03-29T23:20:34.238Z,21.05
2023-03-29T23:23:02.469Z,19.96
2023-03-29T23:25:30.486Z,20.48
2023-03-29T23:27:59.965Z,19.95
2023-03-29T23:30:29.682Z,20.65
2023-03-29T23:33:00.118Z,20.34
2023-03-29T23:35:28.070Z,20.86
2023-03-29T23:37:55.853Z,21.23
2023-03-29T23:40:24.396Z,21.17
2023-03-29T23:42:52.964Z,20.98
2023-03-29T23:45:22.229Z,21.14
2023-03-29T23:47:50.207Z,21.08
2023-03-29T23:50:18.368Z,21.05
2023-03-29T23:52:47.134Z,21.23
2023-03-29T23:55:15.584Z,21.04
2023-03-29T23:57:43.517Z,21.29
